Time;durP1;ratioP1;P1;durP2;ratioP2;P2;SDS_P1;SDS_P2;PMS_P1;PMS_P2;Temp;Humidity;BMP_temperature;BMP_pressure;BME280_temperature;BME280_humidity;BME280_pressure;Samples;Min_cycle;Max_cycle;Signal;HPM_P1;HPM_P2
2023/07/14 00:01:22;;;;;;;87.28;53.90;;;19.60;71.50;;;;;;4968015;28;95414;-47
2023/07/14 00:03:48;;;;;;;87.40;54.15;;;19.60;71.50;;;;;;4969526;28;94931;-44
2023/07/14 00:06:15;;;;;;;88.45;54.13;;;19.60;71.60;;;;;;4968206;28;96413;-47
2023/07/14 00:08:41;;;;;;;87.85;54.22;;;19.60;71.70;;;;;;4968502;28;95390;-44
2023/07/14 00:11:22;;;;;;;88.43;54.22;;;19.50;71.70;;;;;;4965230;28;99331;-45
2023/07/14 00:13:50;;;;;;;87.82;53.92;;;19.50;71.70;;;;;;4968072;28;96041;-45
2023/07/14 00:16:29;;;;;;;87.32;54.03;;;19.50;71.80;;;;;;4964210;28;95367;-46
2023/07/14 00:18:55;;;;;;;87.13;53.65;;;19.50;71.90;;;;;;4970928;28;96797;-44
2023/07/14 00:21:25;;;;;;;87.30;53.58;;;19.40;71.80;;;;;;4967959;28;97526;-45
2023/07/14 00:23:58;;;;;;;87.55;54.35;;;19.40;72.10;;;;;;4967049;28;96268;-44
2023/07/14 00:26:23;;;;;;;88.28;54.50;;;19.40;71.90;;;;;;4963992;28;98971;-45
2023/07/14 00:28:49;;;;;;;89.28;53.90;;;19.40;72.10;;;;;;4964253;28;98750;-47
2023/07/14 00:31:19;;;;;;;88.20;53.95;;;19.30;72.10;;;;;;4963510;28;95852;-46
2023/07/14 00:33:49;;;;;;;87.88;53.85;;;19.30;72.30;;;;;;4967535;28;96201;-43
2023/07/14 00:36:17;;;;;;;87.50;53.95;;;19.30;72.30;;;;;;4965492;28;95958;-44
2023/07/14 00:38:43;;;;;;;87.97;53.95;;;19.30;72.30;;;;;;4965040;28;95661;-45
2023/07/14 00:41:22;;;;;;;86.50;53.60;;;19.30;72.40;;;;;;4957357;28;95063;-48
2023/07/14 00:43:49;;;;;;;87.63;53.95;;;19.20;72.60;;;;;;4964816;28;97031;-44
2023/07/14 00:46:28;;;;;;;86.32;53.58;;;19.20;72.50;;;;;;4965744;28;94776;-45
2023/07/14 00:48:59;;;;;;;88.05;54.10;;;19.20;72.50;;;;;;4968406;28;93764;-45
2023/07/14 00:51:29;;;;;;;88.63;53.90;;;19.20;72.60;;;;;;4968709;28;94995;-45
2023/07/14 00:53:56;;;;;;;87.70;54.28;;;19.20;72.60;;;;;;4967197;28;99241;-46
2023/07/14 00:56:34;;;;;;;86.47;53.83;;;19.10;72.70;;;;;;4962411;28;95990;-44
2023/07/14 00:59:01;;;;;;;87.78;54.22;;;19.10;72.60;;;;;;4969977;28;94922;-44
2023/07/14 01:01:31;;;;;;;87.63;54.05;;;19.10;72.70;;;;;;4966165;28;94769;-45
2023/07/14 01:03:58;;;;;;;87.20;54.13;;;19.00;72.70;;;;;;4966847;28;94957;-46
2023/07/14 01:06:38;;;;;;;87.20;53.97;;;19.00;72.80;;;;;;4961669;28;95949;-47
2023/07/14 01:09:12;;;;;;;87.22;53.95;;;19.00;73.20;;;;;;4964434;28;96299;-46
2023/07/14 01:11:49;;;;;;;87.13;54.25;;;19.00;72.90;;;;;;4966664;28;95238;-46
2023/07/14 01:14:26;;;;;;;88.43;54.38;;;19.00;73.20;;;;;;4964915;28;97665;-44
2023/07/14 01:16:53;;;;;;;87.45;53.85;;;18.90;72.90;;;;;;4962261;28;95308;-46
2023/07/14 01:19:59;;;;;;;88.57;54.25;;;18.90;73.00;;;;;;4967401;28;98441;-43
2023/07/14 01:22:43;;;;;;;87.63;54.08;;;18.80;73.30;;;;;;4852021;28;96786;-41
2023/07/14 01:25:36;;;;;;;86.13;53.72;;;18.90;73.20;;;;;;4960790;28;100005;-43
2023/07/14 01:28:14;;;;;;;86.10;53.58;;;18.80;73.20;;;;;;4965204;28;94843;-42
2023/07/14 01:30:40;;;;;;;87.50;53.85;;;18.80;73.50;;;;;;4965027;28;94753;-42
2023/07/14 01:33:13;;;;;;;87.40;53.90;;;18.80;73.50;;;;;;4963730;28;95600;-42
2023/07/14 01:35:45;;;;;;;87.93;54.03;;;18.80;73.40;;;;;;4968162;28;95791;-43
2023/07/14 01:38:11;;;;;;;88.50;53.67;;;18.80;74.30;;;;;;4966402;28;95165;-44
2023/07/14 01:40:37;;;;;;;87.60;54.10;;;18.80;73.70;;;;;;4965487;28;95387;-44
2023/07/14 01:43:06;;;;;;;88.18;54.25;;;18.70;73.70;;;;;;4965067;28;95950;-47
2023/07/14 01:45:43;;;;;;;86.95;54.00;;;18.70;73.70;;;;;;4967690;28;95840;-44
2023/07/14 01:48:15;;;;;;;86.78;54.15;;;18.70;73.70;;;;;;4965399;28;97863;-44
2023/07/14 01:50:58;;;;;;;85.80;53.45;;;18.70;73.60;;;;;;4965061;28;95271;-45
2023/07/14 01:53:52;;;;;;;88.10;53.83;;;18.70;74.00;;;;;;4960675;28;95095;-44
2023/07/14 01:56:20;;;;;;;86.25;53.70;;;18.70;73.90;;;;;;4959030;28;95077;-44
2023/07/14 01:58:52;;;;;;;87.05;54.05;;;18.70;74.30;;;;;;4965650;28;95005;-45
2023/07/14 02:01:21;;;;;;;86.38;53.50;;;18.70;74.10;;;;;;4966864;28;98080;-43
2023/07/14 02:03:52;;;;;;;86.38;53.53;;;18.60;74.10;;;;;;4962924;28;95344;-45
2023/07/14 02:06:18;;;;;;;85.97;53.50;;;18.70;74.70;;;;;;4962259;28;97644;-44
2023/07/14 02:08:44;;;;;;;86.32;53.63;;;18.60;73.70;;;;;;4965545;28;95178;-45
2023/07/14 02:11:19;;;;;;;86.70;53.92;;;18.60;74.50;;;;;;4965620;28;96396;-44
2023/07/14 02:13:46;;;;;;;86.32;53.75;;;18.60;73.90;;;;;;4967716;28;96722;-44
2023/07/14 02:16:15;;;;;;;86.40;53.72;;;18.60;73.80;;;;;;4964550;28;94884;-45
2023/07/14 02:18:43;;;;;;;87.40;54.05;;;18.60;73.80;;;;;;4966646;28;99476;-45
2023/07/14 02:21:11;;;;;;;86.70;54.05;;;18.60;74.40;;;;;;4968592;28;95902;-45
2023/07/14 02:23:39;;;;;;;86.00;53.53;;;18.60;74.30;;;;;;4964658;28;94713;-45
2023/07/14 02:26:22;;;;;;;86.55;53.88;;;18.60;73.90;;;;;;4963979;28;94901;-45
2023/07/14 02:28:48;;;;;;;86.43;53.72;;;18.50;73.90;;;;;;4965078;28;99258;-43
2023/07/14 02:31:21;;;;;;;86.40;53.45;;;18.50;74.30;;;;;;4965860;28;95815;-43
2023/07/14 02:33:49;;;;;;;85.50;53.25;;;18.50;74.10;;;;;;4966633;28;96258;-43
2023/07/14 02:36:37;;;;;;;85.47;53.45;;;18.50;74.10;;;;;;4965647;28;95995;-43
2023/07/14 02:39:04;;;;;;;86.47;53.72;;;18.40;74.40;;;;;;4968287;28;96107;-42
2023/07/14 02:41:36;;;;;;;86.28;53.42;;;18.40;74.40;;;;;;4964895;28;95119;-43
2023/07/14 02:44:05;;;;;;;88.63;53.95;;;18.40;74.30;;;;;;4965596;28;94838;-43
2023/07/14 02:46:31;;;;;;;87.45;53.85;;;18.40;74.70;;;;;;4963258;28;96600;-43
2023/07/14 02:48:57;;;;;;;85.80;53.38;;;18.40;74.30;;;;;;4965278;28;95185;-44
2023/07/14 02:51:22;;;;;;;85.55;53.28;;;18.30;74.40;;;;;;4965074;28;95183;-46
2023/07/14 02:53:48;;;;;;;87.00;53.75;;;18.40;74.30;;;;;;4965272;28;96597;-46
2023/07/14 02:56:14;;;;;;;84.88;53.13;;;18.30;74.40;;;;;;4948765;28;95693;-45
2023/07/14 02:58:40;;;;;;;86.72;53.47;;;18.30;74.50;;;;;;4965653;28;94851;-44
2023/07/14 03:01:06;;;;;;;86.30;53.42;;;18.30;74.60;;;;;;4966921;28;96826;-46
2023/07/14 03:03:33;;;;;;;87.18;53.58;;;18.30;74.50;;;;;;4962892;28;97184;-44
2023/07/14 03:06:00;;;;;;;86.38;54.28;;;18.20;74.40;;;;;;4967987;28;99053;-43
2023/07/14 03:08:28;;;;;;;86.75;54.03;;;18.20;74.80;;;;;;4967981;28;96676;-45
2023/07/14 03:10:59;;;;;;;85.38;53.22;;;18.20;74.70;;;;;;4964129;28;95508;-44
2023/07/14 03:13:26;;;;;;;86.78;53.55;;;18.20;74.80;;;;;;4967893;28;95675;-46
2023/07/14 03:15:52;;;;;;;85.32;53.22;;;18.20;74.60;;;;;;4970783;28;96015;-44
2023/07/14 03:18:18;;;;;;;86.32;53.65;;;18.20;74.60;;;;;;4969991;28;95393;-45
2023/07/14 03:20:44;;;;;;;86.72;54.05;;;18.20;74.80;;;;;;4966987;28;97868;-44
2023/07/14 03:23:10;;;;;;;86.32;53.58;;;18.20;74.70;;;;;;4966897;28;95400;-45
2023/07/14 03:25:36;;;;;;;87.20;53.60;;;18.20;75.00;;;;;;4969216;28;97239;-44
2023/07/14 03:28:03;;;;;;;85.72;53.85;;;18.20;74.60;;;;;;4970560;28;95921;-44
2023/07/14 03:30:29;;;;;;;87.72;53.72;;;18.10;75.20;;;;;;4969516;28;94826;-44
2023/07/14 03:32:55;;;;;;;87.43;53.58;;;18.10;74.80;;;;;;4968216;28;97719;-44
2023/07/14 03:35:21;;;;;;;85.32;53.50;;;18.10;75.20;;;;;;4966387;28;95546;-43
2023/07/14 03:37:47;;;;;;;85.53;53.22;;;18.10;74.90;;;;;;4968038;28;98162;-42
2023/07/14 03:40:13;;;;;;;86.40;53.28;;;18.10;74.70;;;;;;4968222;28;95956;-42
2023/07/14 03:42:41;;;;;;;85.65;53.55;;;18.10;74.70;;;;;;4965900;28;99551;-42
2023/07/14 03:45:07;;;;;;;86.00;53.70;;;18.10;74.90;;;;;;4968639;28;95115;-43
2023/07/14 03:47:33;;;;;;;84.90;53.53;;;18.10;74.90;;;;;;4950409;28;96810;-43
2023/07/14 03:49:59;;;;;;;86.60;53.65;;;18.10;74.80;;;;;;4965774;28;95278;-43
2023/07/14 03:52:24;;;;;;;85.82;53.53;;;18.10;74.90;;;;;;4966205;28;98930;-43
2023/07/14 03:54:50;;;;;;;84.80;53.05;;;18.00;74.70;;;;;;4966929;28;99228;-43
2023/07/14 03:57:16;;;;;;;86.38;53.92;;;18.00;74.80;;;;;;4965041;28;94983;-44
2023/07/14 03:59:42;;;;;;;87.00;53.67;;;18.00;74.80;;;;;;4968417;28;99845;-45
2023/07/14 04:02:08;;;;;;;87.40;53.53;;;18.00;74.90;;;;;;4968589;28;99299;-43
2023/07/14 04:04:33;;;;;;;84.85;53.53;;;18.00;75.10;;;;;;4964472;28;96048;-46
2023/07/14 04:06:59;;;;;;;85.03;53.47;;;18.00;74.80;;;;;;4972204;28;95830;-45
2023/07/14 04:09:25;;;;;;;85.43;53.38;;;18.00;74.80;;;;;;4970027;28;94819;-44
2023/07/14 04:11:51;;;;;;;85.70;53.55;;;18.00;75.00;;;;;;4962789;28;96580;-47
2023/07/14 04:14:17;;;;;;;84.88;53.38;;;18.00;75.20;;;;;;4964774;28;95026;-45
2023/07/14 04:16:43;;;;;;;85.60;53.42;;;18.00;75.10;;;;;;4968634;28;96400;-44
2023/07/14 04:19:09;;;;;;;85.57;53.70;;;18.00;74.90;;;;;;4969873;28;98625;-45
2023/07/14 04:21:35;;;;;;;88.03;53.92;;;18.00;74.80;;;;;;4965168;28;96536;-45
2023/07/14 04:24:01;;;;;;;85.18;53.55;;;18.00;75.00;;;;;;4965325;28;95839;-45
2023/07/14 04:26:28;;;;;;;86.70;53.40;;;18.00;75.40;;;;;;4965343;28;95011;-45
2023/07/14 04:28:54;;;;;;;85.70;53.50;;;18.00;74.90;;;;;;4969754;28;99337;-46
2023/07/14 04:31:20;;;;;;;86.32;53.72;;;18.00;75.10;;;;;;4966773;28;97754;-45
2023/07/14 04:33:48;;;;;;;86.60;53.38;;;18.00;75.00;;;;;;4966797;28;96096;-45
2023/07/14 04:36:15;;;;;;;85.63;53.25;;;18.00;74.60;;;;;;4970924;28;94918;-46
2023/07/14 04:38:42;;;;;;;86.18;53.20;;;18.00;74.90;;;;;;4967656;28;98884;-44
2023/07/14 04:41:11;;;;;;;84.65;53.25;;;18.00;74.60;;;;;;4963642;28;98946;-47
2023/07/14 04:43:38;;;;;;;87.25;53.60;;;18.00;74.60;;;;;;4950241;28;96685;-43
2023/07/14 04:46:04;;;;;;;86.10;53.72;;;18.00;74.50;;;;;;4965934;28;94843;-46
2023/07/14 04:48:29;;;;;;;85.45;53.55;;;18.10;74.60;;;;;;4969749;28;97199;-43
2023/07/14 04:50:55;;;;;;;86.10;53.53;;;18.10;74.70;;;;;;4966047;28;96393;-46
2023/07/14 04:53:21;;;;;;;85.97;53.80;;;18.00;74.60;;;;;;4968493;28;98329;-44
2023/07/14 04:55:48;;;;;;;85.63;53.30;;;18.10;74.60;;;;;;4964931;28;97430;-45
2023/07/14 04:58:15;;;;;;;85.63;53.78;;;18.10;74.40;;;;;;4970071;28;97915;-46
2023/07/14 05:00:43;;;;;;;86.68;53.63;;;18.10;74.40;;;;;;4968831;28;95398;-44
2023/07/14 05:03:09;;;;;;;85.60;53.70;;;18.10;74.10;;;;;;4961226;28;97869;-46
2023/07/14 05:05:35;;;;;;;85.32;53.20;;;18.10;74.00;;;;;;4966969;28;96363;-44
2023/07/14 05:08:01;;;;;;;85.82;53.28;;;18.20;74.30;;;;;;4967987;28;95296;-45
2023/07/14 05:10:28;;;;;;;85.78;53.30;;;18.20;74.30;;;;;;4964869;28;98425;-44
2023/07/14 05:12:55;;;;;;;85.53;53.42;;;18.20;74.40;;;;;;4964346;28;98864;-44
2023/07/14 05:15:23;;;;;;;86.43;53.90;;;18.20;74.10;;;;;;4968077;28;96567;-44
2023/07/14 05:17:49;;;;;;;86.78;53.83;;;18.20;73.80;;;;;;4969300;28;95558;-46
2023/07/14 05:20:16;;;;;;;86.97;54.10;;;18.20;73.70;;;;;;4965635;28;95148;-44
2023/07/14 05:22:47;;;;;;;87.63;53.60;;;18.30;73.80;;;;;;4964090;28;95057;-45
2023/07/14 05:25:14;;;;;;;;;;;18.30;73.60;;;;;;4970433;28;96009;-47
2023/07/14 05:27:43;;;;;;;85.93;53.58;;;18.30;73.30;;;;;;4966306;28;94650;-43
2023/07/14 05:30:10;;;;;;;86.65;53.65;;;18.40;73.60;;;;;;4964527;28;97670;-45
2023/07/14 05:32:36;;;;;;;86.15;53.75;;;18.30;73.40;;;;;;4963854;28;94941;-45
2023/07/14 05:35:03;;;;;;;87.43;53.95;;;18.40;73.70;;;;;;4966142;28;95247;-43
2023/07/14 05:37:29;;;;;;;85.55;54.00;;;18.40;73.50;;;;;;4969667;28;94675;-45
2023/07/14 05:39:55;;;;;;;85.55;53.90;;;18.40;73.20;;;;;;4965366;28;96625;-44
2023/07/14 05:42:21;;;;;;;87.68;53.90;;;18.40;73.30;;;;;;4962945;28;96074;-44
2023/07/14 05:44:46;;;;;;;85.90;53.75;;;18.50;73.90;;;;;;4967463;28;94751;-44
2023/07/14 05:47:13;;;;;;;85.65;53.72;;;18.60;73.00;;;;;;4966793;28;95372;-47
2023/07/14 05:49:39;;;;;;;87.47;54.58;;;18.60;72.50;;;;;;4966466;28;97118;-45
2023/07/14 05:52:05;;;;;;;87.45;54.13;;;18.70;72.60;;;;;;4965813;28;95811;-47
2023/07/14 05:54:31;;;;;;;86.05;53.72;;;18.70;72.50;;;;;;4961271;28;97086;-45
2023/07/14 05:56:57;;;;;;;86.95;54.15;;;18.70;72.20;;;;;;4965662;28;97155;-44
2023/07/14 05:59:22;;;;;;;86.95;53.90;;;18.80;72.30;;;;;;4943759;28;97208;-44
2023/07/14 06:01:48;;;;;;;87.22;53.83;;;18.80;72.10;;;;;;4957664;28;99629;-46
2023/07/14 06:04:15;;;;;;;87.25;53.70;;;18.80;72.10;;;;;;4967275;28;94816;-45
2023/07/14 06:06:42;;;;;;;88.47;54.05;;;18.90;71.90;;;;;;4962267;28;96370;-45
2023/07/14 06:09:09;;;;;;;87.22;54.10;;;18.90;71.90;;;;;;4962866;28;94709;-46
2023/07/14 06:11:35;;;;;;;88.20;54.38;;;19.00;72.40;;;;;;4960876;28;96427;-44
2023/07/14 06:14:01;;;;;;;88.68;54.10;;;19.10;71.50;;;;;;4967304;28;95767;-44
2023/07/14 06:16:27;;;;;;;87.03;54.13;;;19.10;71.20;;;;;;4963110;28;95426;-48
2023/07/14 06:18:53;;;;;;;87.32;54.15;;;19.20;71.10;;;;;;4966566;28;96400;-44
2023/07/14 06:21:18;;;;;;;87.10;53.92;;;19.20;71.20;;;;;;4962679;28;99246;-42
2023/07/14 06:23:44;;;;;;;89.60;54.17;;;19.30;71.30;;;;;;4965867;28;94901;-42
2023/07/14 06:26:11;;;;;;;86.95;53.95;;;19.30;70.90;;;;;;4966235;28;95776;-42
2023/07/14 06:28:37;;;;;;;87.25;54.22;;;19.40;71.60;;;;;;4965207;28;95034;-42
2023/07/14 06:31:05;;;;;;;88.32;54.22;;;19.40;71.30;;;;;;4963333;28;95008;-42
2023/07/14 06:33:32;;;;;;;87.78;54.33;;;19.50;71.60;;;;;;4960813;28;95350;-45
2023/07/14 06:35:59;;;;;;;88.28;54.35;;;19.60;70.90;;;;;;4965491;28;97577;-44
2023/07/14 06:38:25;;;;;;;88.30;54.50;;;19.60;73.40;;;;;;4963097;28;95286;-43
2023/07/14 06:40:57;;;;;;;88.60;54.30;;;19.70;70.30;;;;;;4961696;28;95831;-43
2023/07/14 06:43:23;;;;;;;88.03;54.45;;;19.70;70.70;;;;;;4962100;28;98960;-42
2023/07/14 06:45:49;;;;;;;88.05;54.10;;;19.80;70.60;;;;;;4963944;28;96812;-45
2023/07/14 06:48:15;;;;;;;88.15;54.33;;;19.80;71.60;;;;;;4963032;28;95561;-43
2023/07/14 06:50:41;;;;;;;90.05;54.10;;;19.90;70.40;;;;;;4960931;28;95970;-43
2023/07/14 06:53:07;;;;;;;89.05;54.17;;;20.00;69.70;;;;;;4963529;28;98007;-42
2023/07/14 06:55:35;;;;;;;88.80;54.08;;;20.00;70.00;;;;;;4964358;28;97970;-45
2023/07/14 06:58:01;;;;;;;90.65;54.65;;;20.10;70.30;;;;;;4962795;28;95523;-44
2023/07/14 07:00:29;;;;;;;88.03;54.20;;;20.20;70.40;;;;;;4962460;28;95188;-43
2023/07/14 07:02:55;;;;;;;91.22;55.25;;;20.30;70.60;;;;;;4958274;28;96666;-42
2023/07/14 07:05:21;;;;;;;90.68;55.08;;;20.30;71.80;;;;;;4958646;28;94737;-43
2023/07/14 07:07:47;;;;;;;90.25;54.58;;;20.40;71.80;;;;;;4960093;28;98798;-42
2023/07/14 07:10:12;;;;;;;94.05;55.83;;;20.50;70.90;;;;;;4962506;28;95718;-43
2023/07/14 07:12:38;;;;;;;91.63;55.53;;;20.60;70.60;;;;;;4955632;28;95991;-42
2023/07/14 07:15:04;;;;;;;92.88;55.70;;;20.70;69.70;;;;;;4962653;28;96435;-42
2023/07/14 07:17:30;;;;;;;92.05;55.45;;;20.70;69.10;;;;;;4954176;28;95872;-43
2023/07/14 07:19:56;;;;;;;95.72;55.72;;;20.80;68.80;;;;;;4958179;28;96309;-43
2023/07/14 07:22:21;;;;;;;95.53;55.70;;;20.80;68.70;;;;;;4957791;28;99194;-44
2023/07/14 07:24:47;;;;;;;92.13;55.40;;;20.80;68.40;;;;;;4955594;28;97736;-42
2023/07/14 07:27:13;;;;;;;107.00;56.67;;;20.90;68.50;;;;;;4958445;28;95000;-44
2023/07/14 07:29:42;;;;;;;93.35;55.65;;;21.00;68.60;;;;;;4958177;28;96609;-44
2023/07/14 07:32:08;;;;;;;91.82;55.67;;;21.00;68.00;;;;;;4951543;28;99898;-47
2023/07/14 07:34:34;;;;;;;93.18;55.85;;;21.10;67.80;;;;;;4955545;28;98816;-47
2023/07/14 07:37:00;;;;;;;96.55;56.25;;;21.20;67.60;;;;;;4963125;28;95411;-44
2023/07/14 07:39:26;;;;;;;93.07;55.67;;;21.20;67.50;;;;;;4960532;28;98100;-44
2023/07/14 07:41:52;;;;;;;94.65;55.47;;;21.20;67.50;;;;;;4958156;28;96983;-46
2023/07/14 07:44:18;;;;;;;93.80;55.78;;;21.20;67.60;;;;;;4952695;28;100485;-45
2023/07/14 07:46:43;;;;;;;94.97;55.88;;;21.20;67.60;;;;;;4960986;28;98676;-46
2023/07/14 07:49:09;;;;;;;95.43;55.53;;;21.20;67.70;;;;;;4956442;28;97048;-45
2023/07/14 07:51:35;;;;;;;93.03;55.55;;;21.30;66.90;;;;;;4941822;28;96741;-44
2023/07/14 07:54:00;;;;;;;93.78;55.42;;;21.30;67.00;;;;;;4958600;28;95595;-46
2023/07/14 07:56:26;;;;;;;96.93;55.95;;;21.30;67.50;;;;;;4954130;28;97285;-45
2023/07/14 07:58:52;;;;;;;91.85;55.60;;;21.40;68.80;;;;;;4949658;28;95338;-44
2023/07/14 08:01:24;;;;;;;97.80;56.03;;;21.50;68.50;;;;;;4956880;28;95883;-46
2023/07/14 08:03:51;;;;;;;93.70;55.53;;;21.50;68.00;;;;;;4963007;28;97024;-46
2023/07/14 08:06:18;;;;;;;97.57;56.38;;;21.50;67.60;;;;;;4958687;28;95248;-46
2023/07/14 08:08:45;;;;;;;93.00;55.63;;;21.60;67.80;;;;;;4961986;28;96582;-47
2023/07/14 08:11:13;;;;;;;101.65;57.00;;;21.60;67.60;;;;;;4963647;28;95631;-44
2023/07/14 08:13:40;;;;;;;102.47;56.95;;;21.70;68.00;;;;;;4967888;28;95278;-44
2023/07/14 08:16:05;;;;;;;99.40;56.90;;;21.70;68.20;;;;;;4963118;28;96538;-45
2023/07/14 08:18:32;;;;;;;94.20;56.25;;;21.80;68.40;;;;;;4963158;28;95207;-43
2023/07/14 08:20:58;;;;;;;100.30;57.28;;;21.80;68.60;;;;;;4956386;28;100276;-43
2023/07/14 08:23:25;;;;;;;110.97;59.45;;;21.90;68.10;;;;;;4959684;28;95185;-44
2023/07/14 08:25:53;;;;;;;107.25;57.40;;;21.90;69.10;;;;;;4958437;28;95481;-43
2023/07/14 08:28:20;;;;;;;100.68;57.50;;;22.00;68.00;;;;;;4961234;28;95304;-42
2023/07/14 08:30:50;;;;;;;105.60;57.72;;;22.00;67.90;;;;;;4963289;28;96696;-44
2023/07/14 08:33:19;;;;;;;97.47;56.53;;;22.10;67.90;;;;;;4969584;28;96433;-45
2023/07/14 08:35:49;;;;;;;100.05;57.85;;;22.10;67.60;;;;;;4957438;28;96045;-44
2023/07/14 08:38:14;;;;;;;102.45;58.38;;;22.10;67.20;;;;;;4955431;28;96649;-44
2023/07/14 08:40:52;;;;;;;106.20;56.92;;;22.20;67.10;;;;;;4960172;28;95107;-42
2023/07/14 08:43:32;;;;;;;94.47;56.22;;;22.20;66.90;;;;;;4957586;28;95061;-45
2023/07/14 08:46:03;;;;;;;100.18;56.55;;;22.20;66.90;;;;;;4935520;28;96031;-44
2023/07/14 08:48:31;;;;;;;;;;;22.20;66.90;;;;;;4940410;28;95513;-43
2023/07/14 08:51:10;;;;;;;98.63;56.83;;;22.20;66.70;;;;;;4957589;28;95354;-42
2023/07/14 08:53:36;;;;;;;99.35;56.40;;;22.30;65.90;;;;;;4957886;28;98801;-44
2023/07/14 08:56:04;;;;;;;100.43;56.58;;;22.30;65.80;;;;;;4961263;28;96002;-43
2023/07/14 08:58:37;;;;;;;97.88;56.17;;;22.30;65.30;;;;;;4957626;28;98467;-43
2023/07/14 09:01:21;;;;;;;98.88;55.70;;;22.30;66.00;;;;;;4946070;28;95702;-43
2023/07/14 09:03:53;;;;;;;98.13;55.78;;;22.40;64.90;;;;;;4960436;28;95107;-43
2023/07/14 09:06:30;;;;;;;93.88;55.85;;;22.40;64.90;;;;;;4952778;28;98349;-42
2023/07/14 09:08:56;;;;;;;96.40;56.03;;;22.40;66.40;;;;;;4953680;28;98485;-43
2023/07/14 09:11:25;;;;;;;94.57;56.00;;;22.40;65.40;;;;;;4951927;28;95887;-43
2023/07/14 09:14:01;;;;;;;95.85;56.42;;;22.40;66.40;;;;;;4963487;28;96444;-43
2023/07/14 09:16:31;;;;;;;97.18;56.00;;;22.50;65.50;;;;;;4959818;28;98099;-43
2023/07/14 09:19:06;;;;;;;97.43;56.17;;;22.50;66.00;;;;;;4958500;28;97134;-42
2023/07/14 09:21:32;;;;;;;97.95;56.17;;;22.60;66.30;;;;;;4965134;28;97217;-43
2023/07/14 09:24:14;;;;;;;92.18;55.55;;;22.60;66.30;;;;;;4962924;28;99373;-44
2023/07/14 09:26:49;;;;;;;96.22;56.03;;;22.60;66.60;;;;;;4957996;28;99675;-43
2023/07/14 09:29:19;;;;;;;94.97;55.65;;;22.70;66.40;;;;;;4965404;28;97142;-46
2023/07/14 09:31:51;;;;;;;96.72;56.22;;;22.70;66.70;;;;;;4955331;28;94775;-48
2023/07/14 09:34:27;;;;;;;93.82;56.15;;;22.80;66.20;;;;;;4961557;28;97620;-49
2023/07/14 09:36:54;;;;;;;95.85;56.42;;;22.80;65.80;;;;;;4957684;28;95735;-47
2023/07/14 09:39:35;;;;;;;96.88;56.20;;;22.80;66.20;;;;;;4958323;28;97033;-48
2023/07/14 09:42:04;;;;;;;98.38;56.65;;;22.90;66.30;;;;;;4957977;28;96371;-50
2023/07/14 09:44:30;;;;;;;96.72;56.35;;;22.90;66.60;;;;;;4960813;28;96472;-51
2023/07/14 09:46:58;;;;;;;96.05;56.63;;;22.90;66.60;;;;;;4955479;28;98376;-45
2023/07/14 09:49:36;;;;;;;96.28;56.63;;;23.00;66.50;;;;;;4963006;28;95492;-45
2023/07/14 09:52:15;;;;;;;95.03;56.50;;;23.00;66.50;;;;;;4962289;28;95890;-46
2023/07/14 09:54:50;;;;;;;95.30;56.78;;;23.10;66.30;;;;;;4960158;28;96059;-44
2023/07/14 09:57:18;;;;;;;93.60;56.75;;;23.10;66.00;;;;;;4949104;28;97848;-53
2023/07/14 09:59:55;;;;;;;95.53;56.78;;;23.20;66.00;;;;;;4955550;28;95815;-47
2023/07/14 10:02:34;;;;;;;94.43;56.17;;;23.20;65.80;;;;;;4959762;28;97259;-46
2023/07/14 10:05:36;;;;;;;94.78;56.50;;;23.30;65.50;;;;;;4962804;28;96363;-46
2023/07/14 10:08:21;;;;;;;97.82;56.70;;;23.40;64.80;;;;;;4960339;28;98907;-45
2023/07/14 10:10:47;;;;;;;95.47;56.40;;;23.50;64.90;;;;;;4960509;28;97176;-49
2023/07/14 10:13:26;;;;;;;98.47;56.42;;;23.60;64.80;;;;;;4960592;28;95875;-48
2023/07/14 10:16:11;;;;;;;96.38;56.38;;;23.60;65.60;;;;;;4955836;28;95501;-45
2023/07/14 10:19:11;;;;;;;95.97;56.17;;;23.60;64.20;;;;;;4956211;28;95232;-46
2023/07/14 10:21:38;;;;;;;95.73;56.50;;;23.70;63.70;;;;;;4947574;28;95943;-46
2023/07/14 10:24:13;;;;;;;95.70;56.60;;;23.80;63.40;;;;;;4951852;28;100376;-44
2023/07/14 10:26:42;;;;;;;94.65;56.42;;;23.80;63.10;;;;;;4957015;28;98417;-49
2023/07/14 10:29:16;;;;;;;94.47;56.50;;;23.90;62.70;;;;;;4957851;28;98625;-49
2023/07/14 10:31:58;;;;;;;93.07;56.13;;;24.00;62.80;;;;;;4959895;28;98992;-47
2023/07/14 10:34:42;;;;;;;142.27;75.75;;;24.00;61.90;;;;;;4938448;28;98703;-49
2023/07/14 10:37:24;;;;;;;89.38;55.95;;;24.10;61.40;;;;;;4955663;28;95570;-49
2023/07/14 10:39:56;;;;;;;88.72;55.78;;;24.20;62.80;;;;;;4958222;28;98700;-49
2023/07/14 10:42:25;;;;;;;93.15;56.08;;;24.30;61.80;;;;;;4950507;28;98774;-49
2023/07/14 10:44:51;;;;;;;95.03;56.13;;;24.40;62.10;;;;;;4956158;28;95075;-52
2023/07/14 10:47:28;;;;;;;93.57;56.28;;;24.40;61.10;;;;;;4956806;28;94822;-49
2023/07/14 10:50:32;;;;;;;94.47;56.33;;;24.40;60.70;;;;;;4952524;28;97930;-53
2023/07/14 10:53:07;;;;;;;93.30;56.38;;;24.50;60.70;;;;;;4931221;28;99110;-47
2023/07/14 10:55:36;;;;;;;92.97;56.10;;;24.50;60.70;;;;;;4952859;28;98811;-53
2023/07/14 10:58:08;;;;;;;91.38;56.35;;;24.60;61.20;;;;;;4956796;28;94887;-50
2023/07/14 11:00:37;;;;;;;91.97;56.28;;;24.60;60.00;;;;;;4946274;28;99233;-52
2023/07/14 11:03:26;;;;;;;91.97;56.53;;;24.60;60.60;;;;;;4955037;28;96472;-47
2023/07/14 11:06:03;;;;;;;93.78;56.38;;;24.70;59.50;;;;;;4966581;28;96890;-52
2023/07/14 11:08:32;;;;;;;92.43;56.28;;;24.70;59.50;;;;;;4959401;28;95361;-53
2023/07/14 11:11:12;;;;;;;97.22;56.58;;;24.80;59.80;;;;;;4964322;28;96014;-47
2023/07/14 11:14:21;;;;;;;92.55;56.55;;;24.80;59.00;;;;;;4961484;28;94546;-52
2023/07/14 11:17:03;;;;;;;93.00;56.42;;;24.90;58.90;;;;;;4965461;28;96190;-55
2023/07/14 11:19:40;;;;;;;95.53;56.90;;;25.00;58.60;;;;;;4962568;28;95951;-49
2023/07/14 11:22:53;;;;;;;92.38;56.67;;;25.10;57.80;;;;;;4966128;28;96309;-50
2023/07/14 11:25:31;;;;;;;94.65;56.97;;;25.20;57.60;;;;;;4905432;28;98648;-53
2023/07/14 11:28:21;;;;;;;95.72;56.70;;;25.20;57.00;;;;;;4906268;28;95336;-50
2023/07/14 11:30:51;;;;;;;94.65;56.90;;;25.30;56.90;;;;;;4951371;28;96273;-56
2023/07/14 11:33:43;;;;;;;96.82;56.88;;;25.30;57.10;;;;;;4968550;28;98111;-52
2023/07/14 11:36:20;;;;;;;94.25;56.70;;;25.20;56.40;;;;;;4967366;28;95700;-54
2023/07/14 11:38:57;;;;;;;95.38;56.70;;;25.20;57.40;;;;;;4967957;28;94707;-47
2023/07/14 11:41:23;;;;;;;95.68;56.95;;;25.20;58.90;;;;;;4966358;28;95629;-48
2023/07/14 11:43:49;;;;;;;98.47;57.03;;;25.30;58.30;;;;;;4963994;28;95634;-50
2023/07/14 11:46:19;;;;;;;97.53;57.13;;;25.30;59.10;;;;;;4967987;28;95851;-48
2023/07/14 11:48:54;;;;;;;100.65;57.38;;;25.40;59.10;;;;;;4966393;28;98976;-49
2023/07/14 11:51:22;;;;;;;97.38;57.13;;;25.40;59.00;;;;;;4967914;28;95535;-55
2023/07/14 11:54:16;;;;;;;98.10;57.28;;;25.40;60.20;;;;;;4967968;28;96597;-46
2023/07/14 11:56:44;;;;;;;96.03;56.72;;;25.50;60.10;;;;;;4966397;28;95068;-47
2023/07/14 11:59:22;;;;;;;96.55;57.13;;;25.60;59.90;;;;;;4970575;28;95089;-51
2023/07/14 12:01:52;;;;;;;98.30;57.22;;;25.70;59.80;;;;;;4968067;28;95682;-49
2023/07/14 12:04:34;;;;;;;95.03;56.78;;;25.70;59.70;;;;;;4965871;28;99967;-49
2023/07/14 12:07:14;;;;;;;97.18;56.88;;;25.80;59.60;;;;;;4965235;28;94916;-51
2023/07/14 12:10:08;;;;;;;95.78;57.20;;;25.80;59.50;;;;;;4963436;28;96130;-49
2023/07/14 12:12:36;;;;;;;96.15;57.30;;;25.80;59.50;;;;;;4963321;28;99819;-50
2023/07/14 12:15:22;;;;;;;96.47;57.03;;;25.90;59.80;;;;;;4960579;28;99851;-50
2023/07/14 12:17:48;;;;;;;95.95;57.03;;;25.90;59.10;;;;;;4964341;28;95909;-50
2023/07/14 12:20:31;;;;;;;96.57;57.17;;;26.00;59.30;;;;;;4966145;28;95647;-46
2023/07/14 12:23:12;;;;;;;97.13;57.05;;;26.10;58.70;;;;;;4967864;28;95761;-49
2023/07/14 12:25:42;;;;;;;98.78;57.45;;;26.10;58.50;;;;;;4962055;28;99159;-49
2023/07/14 12:28:21;;;;;;;96.60;56.90;;;26.10;58.60;;;;;;4963248;28;97143;-49
2023/07/14 12:30:50;;;;;;;96.78;57.08;;;26.20;58.60;;;;;;4946416;28;96433;-50
2023/07/14 12:33:19;;;;;;;98.65;57.22;;;26.20;58.50;;;;;;4956344;28;97678;-51
2023/07/14 12:35:45;;;;;;;98.38;57.20;;;26.20;58.80;;;;;;4962222;28;94724;-47
2023/07/14 12:38:16;;;;;;;98.00;57.45;;;26.20;58.90;;;;;;4964161;28;95395;-46
2023/07/14 12:40:44;;;;;;;100.50;57.35;;;26.20;57.80;;;;;;4960420;28;95856;-44
2023/07/14 12:43:25;;;;;;;99.07;57.45;;;26.20;58.30;;;;;;4958224;28;95562;-47